createdAt,value
2019-03-12T00:01:07.475Z,54.61
2019-03-12T00:03:09.100Z,54.61
2019-03-12T00:05:10.730Z,54.87
2019-03-12T00:07:12.374Z,54.88
2019-03-12T00:09:13.984Z,55.06
2019-03-12T00:11:15.616Z,54.77
2019-03-12T00:13:17.223Z,54.78
2019-03-12T00:15:18.831Z,54.72
2019-03-12T00:17:20.446Z,54.83
2019-03-12T00:19:22.043Z,55.23
2019-03-12T00:21:23.657Z,55.37
2019-03-12T00:23:25.268Z,55.57
2019-03-12T00:25:26.861Z,55.17
2019-03-12T00:27:28.459Z,55.20
2019-03-12T00:29:30.058Z,55.33
2019-03-12T00:31:31.660Z,55.12
2019-03-12T00:33:33.287Z,55.31
2019-03-12T00:35:34.892Z,55.33
2019-03-12T00:37:36.500Z,55.13
2019-03-12T00:39:38.116Z,55.19
2019-03-12T00:41:39.700Z,55.13
2019-03-12T00:43:41.302Z,55.22
2019-03-12T00:45:42.891Z,55.47
2019-03-12T00:47:44.486Z,55.12
2019-03-12T00:49:46.112Z,55.44
2019-03-12T00:51:47.709Z,55.58
2019-03-12T00:53:49.306Z,55.65
2019-03-12T00:55:50.901Z,55.23
2019-03-12T00:57:52.479Z,55.25
2019-03-12T00:59:56.328Z,55.47
2019-03-12T01:01:55.768Z,55.35
2019-03-12T01:03:57.367Z,55.08
2019-03-12T01:05:58.974Z,55.25
2019-03-12T01:08:00.566Z,55.43
2019-03-12T01:10:02.175Z,55.23
2019-03-12T01:12:03.775Z,55.25
2019-03-12T01:14:05.382Z,55.11
2019-03-12T01:16:07.044Z,55.34
2019-03-12T01:18:08.656Z,55.34
2019-03-12T01:20:10.260Z,55.96
2019-03-12T01:22:11.890Z,55.93
2019-03-12T01:24:13.489Z,56.23
2019-03-12T01:26:15.119Z,56.32
2019-03-12T01:28:16.715Z,56.13
2019-03-12T01:30:18.323Z,56.44
2019-03-12T01:32:19.957Z,56.16
2019-03-12T01:34:21.550Z,56.37
2019-03-12T01:36:23.183Z,56.54
2019-03-12T01:38:24.800Z,56.58
2019-03-12T01:40:26.426Z,56.60
2019-03-12T01:42:28.044Z,56.26
2019-03-12T01:44:29.670Z,56.60
2019-03-12T01:46:31.274Z,56.26
2019-03-12T01:48:32.882Z,56.28
2019-03-12T01:50:34.487Z,55.97
2019-03-12T01:52:36.085Z,56.27
2019-03-12T01:54:37.710Z,56.02
2019-03-12T01:56:39.297Z,56.01
2019-03-12T01:58:40.938Z,56.12
2019-03-12T02:00:42.539Z,56.22
2019-03-12T02:02:44.138Z,56.36
2019-03-12T02:04:45.783Z,56.13
2019-03-12T02:06:47.419Z,55.95
2019-03-12T02:08:49.004Z,56.13
2019-03-12T02:10:50.612Z,56.50
2019-03-12T02:12:52.221Z,56.37
2019-03-12T02:14:53.828Z,56.54
2019-03-12T02:16:55.453Z,56.44
2019-03-12T02:18:57.063Z,56.29
2019-03-12T02:20:58.671Z,56.46
2019-03-12T02:23:00.272Z,56.17
2019-03-12T02:25:01.882Z,56.71
2019-03-12T02:27:03.503Z,56.37
2019-03-12T02:29:05.148Z,56.47
2019-03-12T02:31:06.759Z,56.60
2019-03-12T02:33:08.363Z,56.66
2019-03-12T02:35:09.995Z,56.37
2019-03-12T02:37:11.612Z,56.34
2019-03-12T02:39:13.345Z,56.37
2019-03-12T02:41:14.953Z,56.67
2019-03-12T02:43:16.565Z,56.60
2019-03-12T02:45:18.174Z,56.64
2019-03-12T02:47:19.771Z,56.53
2019-03-12T02:49:21.406Z,56.55
2019-03-12T02:51:23.017Z,56.73
2019-03-12T02:53:24.670Z,56.42
2019-03-12T02:55:26.898Z,56.46
2019-03-12T02:57:28.510Z,56.64
2019-03-12T02:59:30.133Z,56.41
2019-03-12T03:01:31.723Z,56.47
2019-03-12T03:03:33.320Z,56.34
2019-03-12T03:05:34.937Z,56.49
2019-03-12T03:07:42.248Z,56.69
2019-03-12T03:09:43.791Z,56.45
2019-03-12T03:11:45.404Z,56.41
2019-03-12T03:13:47.005Z,56.39
2019-03-12T03:15:48.594Z,56.50
2019-03-12T03:17:50.199Z,56.26
2019-03-12T03:19:51.815Z,56.21
2019-03-12T03:21:53.425Z,56.25
2019-03-12T03:23:55.039Z,56.19
2019-03-12T03:25:56.669Z,56.41
2019-03-12T03:27:58.268Z,56.70
2019-03-12T03:29:59.856Z,56.39
2019-03-12T03:32:01.535Z,56.35
2019-03-12T03:34:03.131Z,56.26
2019-03-12T03:36:04.781Z,56.33
2019-03-12T03:38:06.391Z,56.31
2019-03-12T03:40:08.007Z,56.10
2019-03-12T03:42:09.643Z,56.10
2019-03-12T03:44:11.248Z,56.37
2019-03-12T03:46:12.899Z,56.47
2019-03-12T03:48:14.539Z,56.30
2019-03-12T03:50:16.153Z,56.38
2019-03-12T03:52:17.815Z,56.30
2019-03-12T03:54:19.463Z,56.26
2019-03-12T03:56:21.083Z,56.33
2019-03-12T03:58:22.681Z,56.18
2019-03-12T04:00:24.280Z,56.19
2019-03-12T04:02:25.905Z,55.98
2019-03-12T04:04:27.488Z,56.02
2019-03-12T04:06:33.533Z,56.05
2019-03-12T04:08:30.804Z,56.20
2019-03-12T04:10:32.433Z,56.30
2019-03-12T04:12:34.082Z,56.14
2019-03-12T04:14:35.683Z,56.56
2019-03-12T04:16:37.268Z,56.39
2019-03-12T04:18:38.881Z,56.52
2019-03-12T04:20:40.488Z,56.36
2019-03-12T04:22:42.142Z,56.29
2019-03-12T04:24:43.760Z,56.45
2019-03-12T04:26:45.407Z,56.20
2019-03-12T04:28:47.012Z,56.37
2019-03-12T04:30:48.615Z,56.26
2019-03-12T04:32:50.245Z,56.36
2019-03-12T04:34:51.857Z,56.28
2019-03-12T04:36:53.724Z,56.50
2019-03-12T04:38:55.326Z,56.20
2019-03-12T04:40:56.918Z,56.13
2019-03-12T04:42:58.499Z,56.04
2019-03-12T04:45:00.181Z,56.04
2019-03-12T04:47:01.754Z,56.06
2019-03-12T04:49:03.674Z,55.97
2019-03-12T04:51:05.282Z,55.99
2019-03-12T04:53:06.919Z,55.85
2019-03-12T04:55:08.513Z,55.85
2019-03-12T04:57:10.156Z,55.83
2019-03-12T04:59:11.753Z,55.96
2019-03-12T05:01:13.345Z,55.76
2019-03-12T05:03:14.942Z,55.88
2019-03-12T05:05:16.536Z,55.93
2019-03-12T05:07:18.170Z,55.95
2019-03-12T05:09:19.766Z,56.04
2019-03-12T05:11:21.376Z,56.19
2019-03-12T05:13:22.973Z,56.55
2019-03-12T05:15:24.566Z,56.63
2019-03-12T05:17:26.204Z,56.81
2019-03-12T05:19:27.863Z,57.08
2019-03-12T05:21:29.468Z,57.21
2019-03-12T05:23:31.061Z,57.27
2019-03-12T05:25:32.655Z,57.17
2019-03-12T05:27:34.271Z,57.43
2019-03-12T05:29:35.869Z,57.69
2019-03-12T05:31:37.452Z,57.30
2019-03-12T05:33:39.046Z,56.82
2019-03-12T05:35:40.655Z,56.61
2019-03-12T05:37:42.240Z,56.58
2019-03-12T05:39:43.843Z,56.34
2019-03-12T05:41:45.474Z,56.26
2019-03-12T05:43:47.069Z,56.01
2019-03-12T05:45:48.711Z,55.97
2019-03-12T05:47:50.321Z,55.60
2019-03-12T05:49:51.918Z,55.49
2019-03-12T05:51:53.555Z,55.45
2019-03-12T05:53:55.172Z,55.41
2019-03-12T05:55:56.784Z,55.37
2019-03-12T05:57:58.369Z,55.22
2019-03-12T06:00:00.700Z,55.24
2019-03-12T06:02:02.284Z,55.24
2019-03-12T06:04:03.935Z,55.14
2019-03-12T06:06:05.561Z,54.86
2019-03-12T06:08:07.164Z,54.37
2019-03-12T06:10:08.779Z,54.07
2019-03-12T06:12:10.384Z,53.91
2019-03-12T06:14:12.010Z,53.82
2019-03-12T06:16:13.592Z,53.55
2019-03-12T06:18:15.223Z,53.53
2019-03-12T06:20:16.817Z,53.76
2019-03-12T06:22:18.427Z,54.00
2019-03-12T06:24:20.054Z,53.87
2019-03-12T06:26:21.650Z,53.90
2019-03-12T06:28:23.293Z,54.02
2019-03-12T06:30:26.038Z,53.97
2019-03-12T06:32:26.567Z,54.06
2019-03-12T06:34:28.193Z,54.13
2019-03-12T06:36:30.394Z,54.19
2019-03-12T06:38:46.641Z,54.28
2019-03-12T06:40:54.100Z,54.27
2019-03-12T06:43:08.597Z,54.23
2019-03-12T06:45:14.685Z,54.13
2019-03-12T06:47:33.462Z,53.94
2019-03-12T06:49:53.724Z,53.81
2019-03-12T06:51:56.047Z,53.67
2019-03-12T06:53:57.641Z,53.60
2019-03-12T06:56:00.034Z,53.50
2019-03-12T06:58:07.227Z,53.36
2019-03-12T07:00:09.244Z,53.24
2019-03-12T07:02:10.829Z,53.11
2019-03-12T07:04:13.138Z,53.00
2019-03-12T07:06:18.209Z,52.79
2019-03-12T07:08:22.584Z,52.72
2019-03-12T07:10:29.874Z,52.65
2019-03-12T07:12:33.205Z,52.53
2019-03-12T07:14:55.576Z,52.51
2019-03-12T07:16:57.203Z,52.37
2019-03-12T07:19:01.427Z,52.40
2019-03-12T07:21:03.064Z,52.34
2019-03-12T07:23:20.338Z,52.25
2019-03-12T07:25:21.939Z,52.27
2019-03-12T07:27:26.025Z,52.31
2019-03-12T07:29:44.349Z,52.17
2019-03-12T07:31:47.771Z,52.20
2019-03-12T07:34:01.118Z,52.28
2019-03-12T07:36:18.546Z,52.38
2019-03-12T07:38:22.661Z,52.46
2019-03-12T07:40:30.466Z,52.45
2019-03-12T07:42:34.663Z,52.55
2019-03-12T07:44:36.798Z,52.57
2019-03-12T07:46:42.190Z,52.65
2019-03-12T07:48:44.276Z,52.43
2019-03-12T07:50:48.680Z,52.28
2019-03-12T07:53:10.143Z,52.34
2019-03-12T07:55:14.608Z,52.40
2019-03-12T07:57:19.767Z,52.50
2019-03-12T07:59:27.120Z,52.51
2019-03-12T08:01:32.257Z,52.49
2019-03-12T08:03:39.541Z,52.52
2019-03-12T08:05:56.765Z,52.48
2019-03-12T08:08:00.869Z,52.22
2019-03-12T08:10:09.279Z,51.96
2019-03-12T08:12:10.884Z,51.66
2019-03-12T08:14:13.139Z,51.34
2019-03-12T08:16:15.338Z,51.17
2019-03-12T08:18:35.587Z,51.16
2019-03-12T08:20:51.236Z,51.34
2019-03-12T08:22:58.281Z,51.68
2019-03-12T08:25:03.363Z,51.74
2019-03-12T08:27:16.724Z,51.38
2019-03-12T08:29:36.082Z,51.20
2019-03-12T08:31:43.389Z,50.89
2019-03-12T08:33:55.782Z,50.97
2019-03-12T08:36:03.087Z,50.79
2019-03-12T08:38:15.432Z,50.80
2019-03-12T08:40:24.542Z,50.54
2019-03-12T08:42:54.035Z,50.71
2019-03-12T08:45:00.462Z,50.95
2019-03-12T08:47:18.020Z,50.91
2019-03-12T08:49:35.001Z,51.11
2019-03-12T08:51:36.969Z,51.08
2019-03-12T08:53:39.455Z,50.95
2019-03-12T08:55:41.088Z,50.80
2019-03-12T08:57:54.564Z,50.77
2019-03-12T09:00:11.042Z,50.95
2019-03-12T09:02:29.081Z,51.08
2019-03-12T09:04:36.301Z,51.38
2019-03-12T09:06:48.733Z,51.79
2019-03-12T09:08:51.296Z,52.07
2019-03-12T09:10:55.511Z,52.23
2019-03-12T09:12:58.869Z,52.29
2019-03-12T09:15:06.139Z,52.42
2019-03-12T09:17:27.466Z,52.41
2019-03-12T09:19:29.078Z,52.56
2019-03-12T09:21:37.392Z,52.64
2019-03-12T09:23:55.868Z,52.67
2019-03-12T09:25:57.480Z,52.61
2019-03-12T09:28:07.616Z,52.53
2019-03-12T09:30:30.048Z,52.34
2019-03-12T09:32:41.568Z,52.06
2019-03-12T09:34:45.792Z,51.80
2019-03-12T09:37:02.956Z,51.56
2019-03-12T09:39:05.798Z,51.39
2019-03-12T09:41:08.363Z,51.22
2019-03-12T09:43:12.405Z,51.06
2019-03-12T09:45:16.478Z,50.94
2019-03-12T09:47:18.080Z,50.87
2019-03-12T09:49:22.611Z,50.76
2019-03-12T09:51:41.965Z,50.66
2019-03-12T09:53:44.292Z,50.63
2019-03-12T09:56:02.612Z,50.59
2019-03-12T09:58:04.228Z,50.60
2019-03-12T10:00:16.118Z,50.58
2019-03-12T10:02:18.015Z,50.63
2019-03-12T10:04:22.208Z,50.64
2019-03-12T10:06:29.396Z,50.71
2019-03-12T10:08:31.008Z,50.77
2019-03-12T10:10:32.677Z,50.88
2019-03-12T10:12:50.054Z,50.94
2019-03-12T10:14:57.265Z,50.98
2019-03-12T10:17:13.883Z,51.08
2019-03-12T10:19:19.231Z,51.09
2019-03-12T10:21:22.451Z,51.20
2019-03-12T10:23:40.810Z,51.29
2019-03-12T10:25:45.881Z,51.32
2019-03-12T10:27:47.477Z,51.37
2019-03-12T10:30:03.967Z,51.45
2019-03-12T10:32:06.073Z,51.56
2019-03-12T10:34:28.811Z,51.56
2019-03-12T10:36:20.312Z,51.62
2019-03-12T10:38:33.593Z,51.66
2019-03-12T10:40:41.708Z,51.69
2019-03-12T10:43:02.166Z,51.67
2019-03-12T10:45:09.585Z,51.64
2019-03-12T10:47:12.968Z,51.59
2019-03-12T10:49:14.629Z,51.61
2019-03-12T10:51:16.222Z,51.56
2019-03-12T10:53:17.854Z,51.54
2019-03-12T10:55:19.450Z,51.45
2019-03-12T10:57:21.700Z,51.37
2019-03-12T10:59:22.728Z,51.25
2019-03-12T11:01:24.340Z,51.10
2019-03-12T11:03:25.984Z,50.97
2019-03-12T11:05:27.641Z,50.89
2019-03-12T11:07:29.225Z,47.97
2019-03-12T11:09:30.830Z,42.64
2019-03-12T11:11:32.413Z,39.81
2019-03-12T11:13:34.100Z,40.11
2019-03-12T11:15:35.736Z,42.73
2019-03-12T11:17:48.735Z,42.15
2019-03-12T11:19:39.009Z,42.33
2019-03-12T11:21:40.612Z,42.78
2019-03-12T11:23:42.272Z,43.09
2019-03-12T11:25:44.293Z,43.21
2019-03-12T11:27:46.110Z,43.62
2019-03-12T11:29:47.856Z,44.06
2019-03-12T11:31:49.676Z,44.24
2019-03-12T11:33:51.288Z,44.51
2019-03-12T11:35:53.390Z,44.85
2019-03-12T11:37:55.000Z,44.95
2019-03-12T11:39:56.635Z,45.37
2019-03-12T11:41:58.252Z,45.98
2019-03-12T11:43:59.858Z,46.36
2019-03-12T11:46:01.510Z,46.53
2019-03-12T11:48:04.970Z,46.62
2019-03-12T11:50:06.634Z,46.72
2019-03-12T11:52:08.897Z,46.82
2019-03-12T11:54:10.747Z,46.93
2019-03-12T11:56:12.404Z,47.04
2019-03-12T11:58:14.028Z,47.11
2019-03-12T12:00:19.251Z,47.09
2019-03-12T12:02:17.315Z,47.22
2019-03-12T12:04:19.536Z,47.25
2019-03-12T12:06:21.170Z,47.33
2019-03-12T12:08:22.807Z,47.51
2019-03-12T12:10:24.453Z,47.64
2019-03-12T12:12:26.054Z,47.86
2019-03-12T12:14:27.660Z,47.89
2019-03-12T12:16:29.262Z,48.01
2019-03-12T12:18:30.871Z,48.07
2019-03-12T12:20:32.473Z,48.18
2019-03-12T12:22:34.061Z,48.02
2019-03-12T12:24:35.686Z,48.31
2019-03-12T12:26:37.376Z,48.56
2019-03-12T12:28:39.117Z,48.70
2019-03-12T12:30:40.810Z,48.75
2019-03-12T12:32:42.439Z,48.85
2019-03-12T12:34:44.723Z,48.91
2019-03-12T12:36:46.336Z,49.03
2019-03-12T12:38:47.934Z,48.76
2019-03-12T12:40:49.537Z,47.99
2019-03-12T12:42:51.157Z,47.73
2019-03-12T12:44:52.801Z,48.12
2019-03-12T12:46:54.402Z,48.65
2019-03-12T12:48:55.993Z,49.38
2019-03-12T12:51:02.936Z,48.60
2019-03-12T12:52:59.257Z,48.61
2019-03-12T12:55:00.865Z,48.39
2019-03-12T12:57:02.467Z,48.18
2019-03-12T12:59:04.067Z,48.29
2019-03-12T13:01:05.714Z,48.28
2019-03-12T13:03:07.408Z,48.35
2019-03-12T13:05:09.448Z,48.18
2019-03-12T13:07:11.070Z,48.45
2019-03-12T13:09:12.670Z,48.18
2019-03-12T13:11:14.257Z,48.41
2019-03-12T13:13:15.860Z,48.52
2019-03-12T13:15:17.633Z,48.90
2019-03-12T13:17:19.240Z,48.68
2019-03-12T13:19:20.885Z,48.97
2019-03-12T13:21:22.484Z,48.68
2019-03-12T13:23:24.083Z,48.65
2019-03-12T13:25:25.992Z,48.42
2019-03-12T13:27:27.575Z,48.52
2019-03-12T13:29:29.404Z,48.66
2019-03-12T13:31:31.027Z,48.69
2019-03-12T13:33:32.622Z,48.82
2019-03-12T13:35:34.788Z,48.79
2019-03-12T13:37:36.379Z,48.88
2019-03-12T13:39:38.316Z,48.91
2019-03-12T13:41:39.929Z,49.75
2019-03-12T13:43:41.550Z,49.94
2019-03-12T13:45:43.353Z,49.99
2019-03-12T13:47:45.440Z,49.70
2019-03-12T13:49:46.624Z,49.58
2019-03-12T13:51:48.698Z,49.69
2019-03-12T13:53:50.063Z,50.05
2019-03-12T13:55:51.661Z,49.92
2019-03-12T13:57:53.302Z,50.26
2019-03-12T13:59:54.956Z,50.21
2019-03-12T14:01:56.578Z,50.26
2019-03-12T14:04:10.068Z,50.18
2019-03-12T14:06:00.178Z,50.27
2019-03-12T14:08:01.773Z,50.53
2019-03-12T14:10:04.591Z,50.65
2019-03-12T14:12:06.204Z,50.87
2019-03-12T14:14:07.806Z,51.18
2019-03-12T14:16:09.438Z,51.17
2019-03-12T14:18:11.097Z,50.98
2019-03-12T14:20:12.809Z,51.30
2019-03-12T14:22:14.447Z,51.55
2019-03-12T14:24:16.048Z,51.56
2019-03-12T14:26:17.644Z,51.51
2019-03-12T14:28:19.268Z,51.59
2019-03-12T14:30:20.867Z,51.59
2019-03-12T14:32:22.476Z,51.76
2019-03-12T14:34:26.935Z,51.73
2019-03-12T14:36:25.739Z,51.48
2019-03-12T14:38:27.367Z,51.20
2019-03-12T14:40:28.975Z,50.83
2019-03-12T14:42:30.628Z,50.13
2019-03-12T14:44:32.234Z,49.83
2019-03-12T14:46:33.834Z,49.36
2019-03-12T14:48:35.470Z,49.36
2019-03-12T14:50:37.070Z,49.24
2019-03-12T14:52:38.671Z,49.34
2019-03-12T14:54:40.278Z,49.37
2019-03-12T14:56:41.883Z,49.92
2019-03-12T14:58:43.525Z,50.01
2019-03-12T15:00:45.139Z,49.80
2019-03-12T15:02:46.750Z,49.61
2019-03-12T15:04:48.366Z,49.46
2019-03-12T15:06:50.117Z,48.79
2019-03-12T15:08:51.740Z,48.96
2019-03-12T15:10:53.341Z,48.58
2019-03-12T15:12:55.016Z,49.57
2019-03-12T15:14:56.651Z,49.40
2019-03-12T15:16:58.265Z,49.76
2019-03-12T15:18:59.900Z,50.68
2019-03-12T15:21:01.543Z,50.07
2019-03-12T15:23:03.174Z,49.35
2019-03-12T15:25:04.791Z,49.29
2019-03-12T15:27:06.416Z,49.03
2019-03-12T15:29:08.035Z,49.32
2019-03-12T15:31:09.674Z,49.36
2019-03-12T15:33:11.576Z,49.71
2019-03-12T15:35:13.174Z,49.96
2019-03-12T15:37:14.769Z,49.59
2019-03-12T15:39:16.395Z,49.57
2019-03-12T15:41:18.056Z,50.06
2019-03-12T15:43:19.680Z,51.68
2019-03-12T15:45:21.268Z,52.37
2019-03-12T15:47:22.903Z,52.43
2019-03-12T15:49:24.493Z,51.50
2019-03-12T15:51:26.120Z,52.44
2019-03-12T15:53:27.863Z,51.93
2019-03-12T15:55:29.461Z,51.66
2019-03-12T15:57:31.096Z,52.48
2019-03-12T15:59:32.690Z,52.60
2019-03-12T16:01:34.287Z,51.61
2019-03-12T16:03:35.900Z,52.59
2019-03-12T16:05:37.536Z,53.03
2019-03-12T16:07:39.126Z,50.46
2019-03-12T16:09:40.721Z,51.39
2019-03-12T16:11:43.016Z,51.46
2019-03-12T16:13:44.670Z,51.35
2019-03-12T16:15:46.298Z,50.21
2019-03-12T16:17:47.895Z,50.50
2019-03-12T16:19:49.563Z,50.39
2019-03-12T16:21:51.166Z,50.15
2019-03-12T16:23:52.950Z,49.57
2019-03-12T16:25:54.394Z,50.07
2019-03-12T16:27:56.028Z,50.12
2019-03-12T16:29:57.641Z,49.98
2019-03-12T16:31:59.260Z,49.51
2019-03-12T16:34:00.858Z,49.73
2019-03-12T16:36:02.467Z,50.00
2019-03-12T16:38:06.885Z,49.89
2019-03-12T16:40:05.754Z,50.00
2019-03-12T16:42:07.349Z,50.02
2019-03-12T16:44:09.216Z,50.04
2019-03-12T16:46:10.810Z,50.14
2019-03-12T16:48:12.554Z,49.79
2019-03-12T16:50:14.109Z,50.08
2019-03-12T16:52:16.008Z,50.21
2019-03-12T16:54:17.703Z,50.33
2019-03-12T16:56:19.332Z,50.68
2019-03-12T16:58:21.007Z,50.75
2019-03-12T17:00:22.972Z,50.74
2019-03-12T17:02:24.626Z,50.77
2019-03-12T17:04:26.246Z,50.73
2019-03-12T17:06:27.886Z,50.40
2019-03-12T17:08:29.536Z,50.44
2019-03-12T17:10:31.176Z,50.90
2019-03-12T17:12:32.978Z,51.35
2019-03-12T17:14:39.093Z,51.65
2019-03-12T17:16:36.270Z,51.91
2019-03-12T17:18:37.928Z,51.99
2019-03-12T17:20:39.527Z,51.90
2019-03-12T17:22:41.283Z,51.94
2019-03-12T17:24:43.094Z,52.26
2019-03-12T17:26:44.697Z,52.19
2019-03-12T17:28:46.294Z,52.43
2019-03-12T17:30:47.918Z,52.36
2019-03-12T17:32:49.524Z,52.50
2019-03-12T17:34:51.118Z,52.23
2019-03-12T17:36:52.718Z,52.43
2019-03-12T17:38:54.340Z,52.42
2019-03-12T17:40:55.969Z,52.25
2019-03-12T17:42:57.596Z,51.58
2019-03-12T17:44:59.198Z,51.04
2019-03-12T17:47:00.805Z,51.30
2019-03-12T17:49:02.452Z,51.69
2019-03-12T17:51:04.276Z,51.65
2019-03-12T17:53:05.881Z,51.73
2019-03-12T17:55:07.513Z,51.64
2019-03-12T17:57:09.747Z,51.79
2019-03-12T17:59:11.352Z,51.06
2019-03-12T18:01:12.994Z,51.38
2019-03-12T18:03:14.606Z,48.76
2019-03-12T18:05:16.205Z,49.63
2019-03-12T18:07:17.807Z,49.56
2019-03-12T18:09:19.407Z,49.94
2019-03-12T18:11:21.654Z,49.99
2019-03-12T18:13:23.242Z,50.15
2019-03-12T18:15:24.950Z,49.95
2019-03-12T18:17:26.555Z,49.50
2019-03-12T18:19:28.166Z,50.24
2019-03-12T18:21:29.760Z,49.71
2019-03-12T18:23:31.372Z,49.58
2019-03-12T18:25:33.071Z,50.38
2019-03-12T18:27:35.388Z,49.44
2019-03-12T18:29:37.237Z,49.97
2019-03-12T18:31:38.905Z,50.28
2019-03-12T18:33:40.548Z,50.40
2019-03-12T18:35:42.145Z,47.76
2019-03-12T18:37:43.741Z,49.69
2019-03-12T18:39:45.418Z,49.30
2019-03-12T18:41:47.000Z,48.73
2019-03-12T18:43:48.594Z,49.27
2019-03-12T18:45:50.388Z,49.29
2019-03-12T18:47:51.997Z,48.99
2019-03-12T18:49:54.469Z,49.43
2019-03-12T18:51:56.100Z,48.71
2019-03-12T18:53:57.709Z,48.69
2019-03-12T18:55:59.319Z,48.92
2019-03-12T18:58:01.580Z,49.16
2019-03-12T19:00:03.173Z,49.36
2019-03-12T19:02:04.808Z,49.67
2019-03-12T19:04:06.401Z,49.14
2019-03-12T19:06:10.062Z,49.56
2019-03-12T19:08:10.184Z,49.79
2019-03-12T19:10:13.144Z,50.02
2019-03-12T19:12:13.534Z,50.27
2019-03-12T19:14:15.129Z,50.54
2019-03-12T19:16:17.148Z,50.46
2019-03-12T19:18:18.728Z,50.34
2019-03-12T19:20:20.308Z,50.59
2019-03-12T19:22:21.904Z,49.48
2019-03-12T19:24:23.508Z,50.09
2019-03-12T19:26:27.558Z,50.45
2019-03-12T19:28:29.289Z,50.06
2019-03-12T19:30:30.904Z,50.45
2019-03-12T19:32:33.152Z,50.28
2019-03-12T19:34:34.814Z,49.29
2019-03-12T19:36:36.414Z,50.04
2019-03-12T19:38:38.027Z,50.16
2019-03-12T19:40:39.650Z,50.62
2019-03-12T19:42:42.038Z,49.98
2019-03-12T19:44:43.689Z,50.21
2019-03-12T19:46:45.329Z,49.95
2019-03-12T19:48:46.943Z,50.05
2019-03-12T19:50:48.567Z,50.29
2019-03-12T19:52:50.293Z,49.98
2019-03-12T19:54:51.885Z,50.34
2019-03-12T19:56:53.532Z,50.61
2019-03-12T19:58:55.925Z,50.69
2019-03-12T20:00:57.542Z,50.27
2019-03-12T20:03:10.283Z,50.75
2019-03-12T20:05:02.743Z,50.68
2019-03-12T20:07:04.342Z,50.06
2019-03-12T20:09:06.095Z,49.61
2019-03-12T20:11:07.648Z,50.02
2019-03-12T20:13:11.984Z,50.40
2019-03-12T20:15:13.601Z,51.06
2019-03-12T20:17:15.213Z,51.11
2019-03-12T20:19:17.323Z,51.04
2019-03-12T20:21:18.936Z,51.18
2019-03-12T20:23:21.763Z,50.27
2019-03-12T20:25:24.313Z,50.75
2019-03-12T20:27:26.456Z,50.70
2019-03-12T20:29:28.286Z,50.37
2019-03-12T20:31:29.878Z,50.75
2019-03-12T20:33:31.576Z,51.02
2019-03-12T20:35:33.783Z,50.40
2019-03-12T20:37:36.367Z,50.92
2019-03-12T20:39:38.004Z,51.20
2019-03-12T20:41:39.603Z,51.43
2019-03-12T20:43:41.216Z,51.50
2019-03-12T20:45:42.882Z,51.17
2019-03-12T20:47:44.503Z,51.37
2019-03-12T20:49:46.153Z,51.44
2019-03-12T20:51:49.091Z,51.50
2019-03-12T20:53:50.676Z,51.72
2019-03-12T20:55:52.284Z,51.69
2019-03-12T20:57:53.924Z,51.62
2019-03-12T20:59:55.539Z,51.96
2019-03-12T21:01:57.135Z,51.50
2019-03-12T21:03:59.043Z,52.04
2019-03-12T21:06:00.651Z,51.75
2019-03-12T21:08:02.267Z,51.97
2019-03-12T21:10:03.929Z,51.97
2019-03-12T21:12:06.123Z,52.10
2019-03-12T21:14:07.727Z,52.11
2019-03-12T21:16:09.368Z,52.27
2019-03-12T21:18:10.952Z,52.18
2019-03-12T21:20:12.553Z,52.35
2019-03-12T21:22:14.144Z,52.37
2019-03-12T21:24:15.748Z,52.17
2019-03-12T21:26:17.457Z,52.50
2019-03-12T21:28:19.072Z,52.65
2019-03-12T21:30:20.670Z,52.56
2019-03-12T21:32:22.271Z,52.85
2019-03-12T21:34:23.865Z,52.48
2019-03-12T21:36:25.487Z,52.41
2019-03-12T21:38:27.087Z,52.43
2019-03-12T21:40:28.693Z,52.38
2019-03-12T21:42:30.299Z,52.48
2019-03-12T21:44:32.009Z,52.43
2019-03-12T21:46:33.596Z,52.24
2019-03-12T21:48:35.211Z,52.45
2019-03-12T21:50:36.838Z,52.29
2019-03-12T21:52:38.437Z,51.17
2019-03-12T21:54:40.092Z,50.96
2019-03-12T21:56:41.695Z,51.53
2019-03-12T21:58:43.298Z,50.77
2019-03-12T22:00:44.965Z,50.83
2019-03-12T22:02:46.563Z,51.19
2019-03-12T22:04:48.161Z,51.65
2019-03-12T22:06:49.768Z,52.20
2019-03-12T22:08:51.353Z,49.96
2019-03-12T22:10:52.996Z,40.14
2019-03-12T22:12:54.604Z,43.90
2019-03-12T22:14:56.233Z,44.93
2019-03-12T22:16:57.839Z,45.57
2019-03-12T22:18:59.433Z,45.88
2019-03-12T22:21:01.077Z,46.51
2019-03-12T22:23:07.600Z,47.14
2019-03-12T22:25:09.212Z,47.69
2019-03-12T22:27:10.860Z,48.05
2019-03-12T22:29:12.531Z,48.43
2019-03-12T22:31:14.137Z,48.63
2019-03-12T22:33:15.743Z,48.88
2019-03-12T22:35:17.399Z,49.21
2019-03-12T22:37:19.030Z,49.39
2019-03-12T22:39:20.640Z,49.56
2019-03-12T22:41:22.300Z,49.70
2019-03-12T22:43:23.897Z,49.85
2019-03-12T22:45:25.490Z,49.97
2019-03-12T22:47:27.092Z,50.17
2019-03-12T22:49:28.690Z,50.23
2019-03-12T22:51:30.281Z,50.29
2019-03-12T22:53:31.927Z,50.45
2019-03-12T22:55:33.552Z,50.48
2019-03-12T22:57:35.142Z,50.60
2019-03-12T22:59:36.738Z,50.79
2019-03-12T23:01:38.365Z,51.00
2019-03-12T23:03:39.994Z,51.04
2019-03-12T23:05:41.758Z,51.05
2019-03-12T23:07:43.355Z,51.11
2019-03-12T23:09:44.947Z,51.26
2019-03-12T23:11:46.556Z,51.50
2019-03-12T23:13:48.149Z,51.52
2019-03-12T23:15:49.816Z,51.65
2019-03-12T23:17:51.414Z,51.72
2019-03-12T23:19:53.027Z,51.83
2019-03-12T23:21:54.678Z,51.89
2019-03-12T23:23:56.278Z,51.95
2019-03-12T23:25:57.884Z,52.04
2019-03-12T23:27:59.478Z,52.07
2019-03-12T23:30:01.073Z,52.09
2019-03-12T23:32:02.729Z,52.31
2019-03-12T23:34:04.341Z,52.50
2019-03-12T23:36:05.933Z,52.65
2019-03-12T23:38:07.530Z,52.62
2019-03-12T23:40:09.140Z,52.41
2019-03-12T23:42:10.770Z,52.78
2019-03-12T23:44:12.412Z,52.68
2019-03-12T23:46:14.019Z,52.78
2019-03-12T23:48:15.651Z,52.79
2019-03-12T23:50:17.263Z,52.83
2019-03-12T23:52:18.857Z,52.73
2019-03-12T23:54:20.477Z,52.85
2019-03-12T23:56:22.104Z,52.89
2019-03-12T23:58:23.733Z,53.09
